sensor_id;sensor_type;location;lat;lon;timestamp;P1;durP1;ratioP1;P2;durP2;ratioP2
67997;SDS011;54773;53.388;-1.504;2022-08-01T00:01:26;7.05;;;1.52;;
67997;SDS011;54773;53.388;-1.504;2022-08-01T00:03:51;3.80;;;1.40;;
67997;SDS011;54773;53.388;-1.504;2022-08-01T00:06:17;6.82;;;1.55;;
67997;SDS011;54773;53.388;-1.504;2022-08-01T00:08:43;5.32;;;1.52;;
67997;SDS011;54773;53.388;-1.504;2022-08-01T00:11:09;7.25;;;1.63;;
67997;SDS011;54773;53.388;-1.504;2022-08-01T00:13:35;6.95;;;1.95;;
67997;SDS011;54773;53.388;-1.504;2022-08-01T00:16:00;5.88;;;1.63;;
67997;SDS011;54773;53.388;-1.504;2022-08-01T00:18:27;7.10;;;1.48;;
67997;SDS011;54773;53.388;-1.504;2022-08-01T00:20:53;3.90;;;1.48;;
67997;SDS011;54773;53.388;-1.504;2022-08-01T00:23:20;7.38;;;1.75;;
67997;SDS011;54773;53.388;-1.504;2022-08-01T00:25:46;8.70;;;1.67;;
67997;SDS011;54773;53.388;-1.504;2022-08-01T00:28:14;6.28;;;1.58;;
67997;SDS011;54773;53.388;-1.504;2022-08-01T00:30:41;6.75;;;1.77;;
67997;SDS011;54773;53.388;-1.504;2022-08-01T00:33:07;6.90;;;1.73;;
67997;SDS011;54773;53.388;-1.504;2022-08-01T00:35:34;6.28;;;1.80;;
67997;SDS011;54773;53.388;-1.504;2022-08-01T00:38:00;5.22;;;1.55;;
67997;SDS011;54773;53.388;-1.504;2022-08-01T00:40:25;4.95;;;1.80;;
67997;SDS011;54773;53.388;-1.504;2022-08-01T00:42:51;6.68;;;1.70;;
67997;SDS011;54773;53.388;-1.504;2022-08-01T00:45:17;6.80;;;1.77;;
67997;SDS011;54773;53.388;-1.504;2022-08-01T00:47:43;6.57;;;1.80;;
67997;SDS011;54773;53.388;-1.504;2022-08-01T00:50:10;7.95;;;2.00;;
67997;SDS011;54773;53.388;-1.504;2022-08-01T00:52:36;11.25;;;2.08;;
67997;SDS011;54773;53.388;-1.504;2022-08-01T00:55:05;6.35;;;1.70;;
67997;SDS011;54773;53.388;-1.504;2022-08-01T00:57:31;9.25;;;2.35;;
67997;SDS011;54773;53.388;-1.504;2022-08-01T00:59:57;7.57;;;2.10;;
67997;SDS011;54773;53.388;-1.504;2022-08-01T01:02:24;7.20;;;2.05;;
67997;SDS011;54773;53.388;-1.504;2022-08-01T01:04:51;7.15;;;2.13;;
67997;SDS011;54773;53.388;-1.504;2022-08-01T01:15:43;5.82;;;2.05;;
67997;SDS011;54773;53.388;-1.504;2022-08-01T01:18:32;5.82;;;1.80;;
67997;SDS011;54773;53.388;-1.504;2022-08-01T01:26:17;6.53;;;1.70;;
67997;SDS011;54773;53.388;-1.504;2022-08-01T01:28:55;7.50;;;2.22;;
67997;SDS011;54773;53.388;-1.504;2022-08-01T01:31:44;6.57;;;1.85;;
67997;SDS011;54773;53.388;-1.504;2022-08-01T01:34:13;5.95;;;2.20;;
67997;SDS011;54773;53.388;-1.504;2022-08-01T01:36:40;4.07;;;1.52;;
67997;SDS011;54773;53.388;-1.504;2022-08-01T01:39:07;4.28;;;1.63;;
67997;SDS011;54773;53.388;-1.504;2022-08-01T01:41:33;4.50;;;1.70;;
67997;SDS011;54773;53.388;-1.504;2022-08-01T01:44:01;4.15;;;1.90;;
67997;SDS011;54773;53.388;-1.504;2022-08-01T01:46:27;7.03;;;2.10;;
67997;SDS011;54773;53.388;-1.504;2022-08-01T01:48:55;6.55;;;1.92;;
67997;SDS011;54773;53.388;-1.504;2022-08-01T01:51:22;6.45;;;1.98;;
67997;SDS011;54773;53.388;-1.504;2022-08-01T01:53:50;6.10;;;1.90;;
67997;SDS011;54773;53.388;-1.504;2022-08-01T01:56:19;6.07;;;1.70;;
67997;SDS011;54773;53.388;-1.504;2022-08-01T01:58:50;7.13;;;1.70;;
67997;SDS011;54773;53.388;-1.504;2022-08-01T02:01:21;6.05;;;1.77;;
67997;SDS011;54773;53.388;-1.504;2022-08-01T02:03:49;8.20;;;1.90;;
67997;SDS011;54773;53.388;-1.504;2022-08-01T02:06:16;6.93;;;2.10;;
67997;SDS011;54773;53.388;-1.504;2022-08-01T02:08:43;6.80;;;1.92;;
67997;SDS011;54773;53.388;-1.504;2022-08-01T02:11:23;6.30;;;1.88;;
67997;SDS011;54773;53.388;-1.504;2022-08-01T02:16:26;7.75;;;2.20;;
67997;SDS011;54773;53.388;-1.504;2022-08-01T02:18:54;7.90;;;1.80;;
67997;SDS011;54773;53.388;-1.504;2022-08-01T02:21:23;8.32;;;2.00;;
67997;SDS011;54773;53.388;-1.504;2022-08-01T02:23:52;5.15;;;1.85;;
67997;SDS011;54773;53.388;-1.504;2022-08-01T02:26:20;8.15;;;1.73;;
67997;SDS011;54773;53.388;-1.504;2022-08-01T02:28:52;7.07;;;1.90;;
67997;SDS011;54773;53.388;-1.504;2022-08-01T02:31:24;5.13;;;1.60;;
67997;SDS011;54773;53.388;-1.504;2022-08-01T02:33:57;6.22;;;1.70;;
67997;SDS011;54773;53.388;-1.504;2022-08-01T02:36:25;4.72;;;1.77;;
67997;SDS011;54773;53.388;-1.504;2022-08-01T02:38:52;8.10;;;2.08;;
67997;SDS011;54773;53.388;-1.504;2022-08-01T02:41:21;9.18;;;1.90;;
67997;SDS011;54773;53.388;-1.504;2022-08-01T02:43:50;5.88;;;1.83;;
67997;SDS011;54773;53.388;-1.504;2022-08-01T02:46:31;6.70;;;1.60;;
67997;SDS011;54773;53.388;-1.504;2022-08-01T02:49:00;6.88;;;2.10;;
67997;SDS011;54773;53.388;-1.504;2022-08-01T02:51:28;5.78;;;2.53;;
67997;SDS011;54773;53.388;-1.504;2022-08-01T02:54:00;6.38;;;1.85;;
67997;SDS011;54773;53.388;-1.504;2022-08-01T02:56:28;5.32;;;1.98;;
67997;SDS011;54773;53.388;-1.504;2022-08-01T02:59:07;5.10;;;1.73;;
67997;SDS011;54773;53.388;-1.504;2022-08-01T03:04:01;4.68;;;1.55;;
67997;SDS011;54773;53.388;-1.504;2022-08-01T03:06:28;8.65;;;1.92;;
67997;SDS011;54773;53.388;-1.504;2022-08-01T03:08:54;7.47;;;1.92;;
67997;SDS011;54773;53.388;-1.504;2022-08-01T03:11:21;8.70;;;2.00;;
67997;SDS011;54773;53.388;-1.504;2022-08-01T03:13:49;6.50;;;1.85;;
67997;SDS011;54773;53.388;-1.504;2022-08-01T03:16:16;7.75;;;1.80;;
67997;SDS011;54773;53.388;-1.504;2022-08-01T03:18:42;5.07;;;1.80;;
67997;SDS011;54773;53.388;-1.504;2022-08-01T03:21:09;4.85;;;1.70;;
67997;SDS011;54773;53.388;-1.504;2022-08-01T03:23:39;9.20;;;1.88;;
67997;SDS011;54773;53.388;-1.504;2022-08-01T03:26:06;6.53;;;2.00;;
67997;SDS011;54773;53.388;-1.504;2022-08-01T03:28:33;6.82;;;2.00;;
67997;SDS011;54773;53.388;-1.504;2022-08-01T03:30:59;6.47;;;1.55;;
67997;SDS011;54773;53.388;-1.504;2022-08-01T03:33:30;10.43;;;2.50;;
67997;SDS011;54773;53.388;-1.504;2022-08-01T03:35:56;6.68;;;1.95;;
67997;SDS011;54773;53.388;-1.504;2022-08-01T03:38:26;6.40;;;1.98;;
67997;SDS011;54773;53.388;-1.504;2022-08-01T03:40:57;7.90;;;2.30;;
67997;SDS011;54773;53.388;-1.504;2022-08-01T03:43:36;7.35;;;2.10;;
67997;SDS011;54773;53.388;-1.504;2022-08-01T03:46:11;7.57;;;2.10;;
67997;SDS011;54773;53.388;-1.504;2022-08-01T03:48:48;10.25;;;2.10;;
67997;SDS011;54773;53.388;-1.504;2022-08-01T03:51:14;7.47;;;2.25;;
67997;SDS011;54773;53.388;-1.504;2022-08-01T03:53:40;9.20;;;2.22;;
67997;SDS011;54773;53.388;-1.504;2022-08-01T03:56:06;9.23;;;2.85;;
67997;SDS011;54773;53.388;-1.504;2022-08-01T03:58:35;6.72;;;2.42;;
67997;SDS011;54773;53.388;-1.504;2022-08-01T04:01:02;6.47;;;2.13;;
67997;SDS011;54773;53.388;-1.504;2022-08-01T04:03:29;9.60;;;2.63;;
67997;SDS011;54773;53.388;-1.504;2022-08-01T04:05:56;6.10;;;2.25;;
67997;SDS011;54773;53.388;-1.504;2022-08-01T04:08:21;6.95;;;2.30;;
67997;SDS011;54773;53.388;-1.504;2022-08-01T04:10:59;9.18;;;2.92;;
67997;SDS011;54773;53.388;-1.504;2022-08-01T04:13:25;7.18;;;2.42;;
67997;SDS011;54773;53.388;-1.504;2022-08-01T04:15:52;6.35;;;2.33;;
67997;SDS011;54773;53.388;-1.504;2022-08-01T04:18:19;8.85;;;3.03;;
67997;SDS011;54773;53.388;-1.504;2022-08-01T04:20:46;9.77;;;2.60;;
67997;SDS011;54773;53.388;-1.504;2022-08-01T04:23:12;7.45;;;2.60;;
67997;SDS011;54773;53.388;-1.504;2022-08-01T04:25:40;13.23;;;2.67;;
67997;SDS011;54773;53.388;-1.504;2022-08-01T04:28:07;6.45;;;2.20;;
67997;SDS011;54773;53.388;-1.504;2022-08-01T04:30:41;7.07;;;2.57;;
67997;SDS011;54773;53.388;-1.504;2022-08-01T04:33:08;9.23;;;2.80;;
67997;SDS011;54773;53.388;-1.504;2022-08-01T04:35:36;7.28;;;2.50;;
67997;SDS011;54773;53.388;-1.504;2022-08-01T04:38:03;6.80;;;2.47;;
67997;SDS011;54773;53.388;-1.504;2022-08-01T04:40:29;4.82;;;1.98;;
67997;SDS011;54773;53.388;-1.504;2022-08-01T04:42:57;11.27;;;2.60;;
67997;SDS011;54773;53.388;-1.504;2022-08-01T04:45:23;7.63;;;2.63;;
67997;SDS011;54773;53.388;-1.504;2022-08-01T04:47:49;7.47;;;2.75;;
67997;SDS011;54773;53.388;-1.504;2022-08-01T04:50:14;7.63;;;2.28;;
67997;SDS011;54773;53.388;-1.504;2022-08-01T04:52:40;8.38;;;2.53;;
67997;SDS011;54773;53.388;-1.504;2022-08-01T04:55:07;12.95;;;2.92;;
67997;SDS011;54773;53.388;-1.504;2022-08-01T04:57:35;9.52;;;2.80;;
67997;SDS011;54773;53.388;-1.504;2022-08-01T05:00:02;10.35;;;2.83;;
67997;SDS011;54773;53.388;-1.504;2022-08-01T05:02:29;9.55;;;2.50;;
67997;SDS011;54773;53.388;-1.504;2022-08-01T05:04:56;7.30;;;2.70;;
67997;SDS011;54773;53.388;-1.504;2022-08-01T05:07:22;7.63;;;2.67;;
67997;SDS011;54773;53.388;-1.504;2022-08-01T05:09:47;8.07;;;2.55;;
67997;SDS011;54773;53.388;-1.504;2022-08-01T05:12:13;12.63;;;3.05;;
67997;SDS011;54773;53.388;-1.504;2022-08-01T05:14:40;14.95;;;3.22;;
67997;SDS011;54773;53.388;-1.504;2022-08-01T05:17:06;9.68;;;2.88;;
67997;SDS011;54773;53.388;-1.504;2022-08-01T05:19:37;10.20;;;2.55;;
67997;SDS011;54773;53.388;-1.504;2022-08-01T05:22:04;10.40;;;2.80;;
67997;SDS011;54773;53.388;-1.504;2022-08-01T05:24:31;7.70;;;2.70;;
67997;SDS011;54773;53.388;-1.504;2022-08-01T05:27:01;7.25;;;2.35;;
67997;SDS011;54773;53.388;-1.504;2022-08-01T05:29:31;6.05;;;2.15;;
67997;SDS011;54773;53.388;-1.504;2022-08-01T05:31:58;8.60;;;2.22;;
67997;SDS011;54773;53.388;-1.504;2022-08-01T05:34:24;8.73;;;2.72;;
67997;SDS011;54773;53.388;-1.504;2022-08-01T05:36:50;7.70;;;2.20;;
67997;SDS011;54773;53.388;-1.504;2022-08-01T05:39:15;7.45;;;2.38;;
67997;SDS011;54773;53.388;-1.504;2022-08-01T05:41:42;6.18;;;2.53;;
67997;SDS011;54773;53.388;-1.504;2022-08-01T05:44:08;8.43;;;2.70;;
67997;SDS011;54773;53.388;-1.504;2022-08-01T05:46:34;6.57;;;2.53;;
67997;SDS011;54773;53.388;-1.504;2022-08-01T05:49:01;8.98;;;2.03;;
67997;SDS011;54773;53.388;-1.504;2022-08-01T05:51:28;7.80;;;2.45;;
67997;SDS011;54773;53.388;-1.504;2022-08-01T05:53:54;7.85;;;1.90;;
67997;SDS011;54773;53.388;-1.504;2022-08-01T05:56:21;10.30;;;2.22;;
67997;SDS011;54773;53.388;-1.504;2022-08-01T05:58:49;6.22;;;2.20;;
67997;SDS011;54773;53.388;-1.504;2022-08-01T06:01:19;8.20;;;2.40;;
67997;SDS011;54773;53.388;-1.504;2022-08-01T06:03:45;6.78;;;2.00;;
67997;SDS011;54773;53.388;-1.504;2022-08-01T06:06:11;4.95;;;1.90;;
67997;SDS011;54773;53.388;-1.504;2022-08-01T06:08:44;10.90;;;2.57;;
67997;SDS011;54773;53.388;-1.504;2022-08-01T06:11:10;5.22;;;1.85;;
67997;SDS011;54773;53.388;-1.504;2022-08-01T06:13:36;8.80;;;1.70;;
67997;SDS011;54773;53.388;-1.504;2022-08-01T06:16:02;6.07;;;1.75;;
67997;SDS011;54773;53.388;-1.504;2022-08-01T06:18:27;8.20;;;1.80;;
67997;SDS011;54773;53.388;-1.504;2022-08-01T06:20:53;5.82;;;1.83;;
67997;SDS011;54773;53.388;-1.504;2022-08-01T06:23:20;10.00;;;2.03;;
67997;SDS011;54773;53.388;-1.504;2022-08-01T06:25:47;8.98;;;2.40;;
67997;SDS011;54773;53.388;-1.504;2022-08-01T06:28:13;7.40;;;1.70;;
67997;SDS011;54773;53.388;-1.504;2022-08-01T06:30:39;5.28;;;2.00;;
67997;SDS011;54773;53.388;-1.504;2022-08-01T06:33:08;8.27;;;2.08;;
67997;SDS011;54773;53.388;-1.504;2022-08-01T06:35:34;9.30;;;1.70;;
67997;SDS011;54773;53.388;-1.504;2022-08-01T06:38:00;7.30;;;1.83;;
67997;SDS011;54773;53.388;-1.504;2022-08-01T06:40:25;6.28;;;2.38;;
67997;SDS011;54773;53.388;-1.504;2022-08-01T06:42:53;7.78;;;1.80;;
67997;SDS011;54773;53.388;-1.504;2022-08-01T06:45:19;5.45;;;1.70;;
67997;SDS011;54773;53.388;-1.504;2022-08-01T06:47:47;5.68;;;2.17;;
67997;SDS011;54773;53.388;-1.504;2022-08-01T06:50:19;7.63;;;2.20;;
67997;SDS011;54773;53.388;-1.504;2022-08-01T06:52:45;5.95;;;1.98;;
67997;SDS011;54773;53.388;-1.504;2022-08-01T06:55:13;5.18;;;1.75;;
67997;SDS011;54773;53.388;-1.504;2022-08-01T06:57:46;6.25;;;2.00;;
67997;SDS011;54773;53.388;-1.504;2022-08-01T07:00:15;11.63;;;2.55;;
67997;SDS011;54773;53.388;-1.504;2022-08-01T07:02:44;6.35;;;2.08;;
67997;SDS011;54773;53.388;-1.504;2022-08-01T07:05:10;8.38;;;1.95;;
67997;SDS011;54773;53.388;-1.504;2022-08-01T07:07:44;9.40;;;1.98;;
67997;SDS011;54773;53.388;-1.504;2022-08-01T07:10:10;5.63;;;2.00;;
67997;SDS011;54773;53.388;-1.504;2022-08-01T07:12:37;5.88;;;1.88;;
67997;SDS011;54773;53.388;-1.504;2022-08-01T07:15:06;5.80;;;2.20;;
67997;SDS011;54773;53.388;-1.504;2022-08-01T07:17:39;5.43;;;1.80;;
67997;SDS011;54773;53.388;-1.504;2022-08-01T07:20:07;8.35;;;2.17;;
67997;SDS011;54773;53.388;-1.504;2022-08-01T07:22:34;7.35;;;2.05;;
67997;SDS011;54773;53.388;-1.504;2022-08-01T07:25:03;5.47;;;1.77;;
67997;SDS011;54773;53.388;-1.504;2022-08-01T07:27:32;6.97;;;1.95;;
67997;SDS011;54773;53.388;-1.504;2022-08-01T07:29:58;8.05;;;1.83;;
67997;SDS011;54773;53.388;-1.504;2022-08-01T07:32:24;7.40;;;1.70;;
67997;SDS011;54773;53.388;-1.504;2022-08-01T07:34:50;5.15;;;1.75;;
67997;SDS011;54773;53.388;-1.504;2022-08-01T07:37:16;8.65;;;2.05;;
67997;SDS011;54773;53.388;-1.504;2022-08-01T07:39:42;3.70;;;1.48;;
67997;SDS011;54773;53.388;-1.504;2022-08-01T07:42:20;3.85;;;1.30;;
67997;SDS011;54773;53.388;-1.504;2022-08-01T07:44:45;4.90;;;1.35;;
67997;SDS011;54773;53.388;-1.504;2022-08-01T07:47:12;3.72;;;1.38;;
67997;SDS011;54773;53.388;-1.504;2022-08-01T07:49:38;5.63;;;1.65;;
67997;SDS011;54773;53.388;-1.504;2022-08-01T07:52:06;8.80;;;1.75;;
67997;SDS011;54773;53.388;-1.504;2022-08-01T07:54:36;5.75;;;1.23;;
67997;SDS011;54773;53.388;-1.504;2022-08-01T07:57:02;9.15;;;1.55;;
67997;SDS011;54773;53.388;-1.504;2022-08-01T07:59:28;4.22;;;1.42;;
67997;SDS011;54773;53.388;-1.504;2022-08-01T08:01:54;4.18;;;1.10;;
67997;SDS011;54773;53.388;-1.504;2022-08-01T08:04:23;6.78;;;2.03;;
67997;SDS011;54773;53.388;-1.504;2022-08-01T08:06:53;5.70;;;1.38;;
67997;SDS011;54773;53.388;-1.504;2022-08-01T08:09:19;4.50;;;1.30;;
67997;SDS011;54773;53.388;-1.504;2022-08-01T08:11:46;5.40;;;1.48;;
67997;SDS011;54773;53.388;-1.504;2022-08-01T08:14:11;5.15;;;1.42;;
67997;SDS011;54773;53.388;-1.504;2022-08-01T08:16:38;4.47;;;1.38;;
67997;SDS011;54773;53.388;-1.504;2022-08-01T08:19:03;3.63;;;1.20;;
67997;SDS011;54773;53.388;-1.504;2022-08-01T08:21:30;5.25;;;1.55;;
67997;SDS011;54773;53.388;-1.504;2022-08-01T08:23:57;5.10;;;1.35;;
67997;SDS011;54773;53.388;-1.504;2022-08-01T08:26:47;4.93;;;1.52;;
67997;SDS011;54773;53.388;-1.504;2022-08-01T08:29:18;7.68;;;1.63;;
67997;SDS011;54773;53.388;-1.504;2022-08-01T08:31:51;4.72;;;1.20;;
67997;SDS011;54773;53.388;-1.504;2022-08-01T08:34:23;4.90;;;1.27;;
67997;SDS011;54773;53.388;-1.504;2022-08-01T08:36:57;2.88;;;1.20;;
67997;SDS011;54773;53.388;-1.504;2022-08-01T08:39:29;4.75;;;1.42;;
67997;SDS011;54773;53.388;-1.504;2022-08-01T08:42:05;3.60;;;1.23;;
67997;SDS011;54773;53.388;-1.504;2022-08-01T08:47:15;4.28;;;1.25;;
67997;SDS011;54773;53.388;-1.504;2022-08-01T08:49:51;7.35;;;1.20;;
67997;SDS011;54773;53.388;-1.504;2022-08-01T08:52:21;4.70;;;1.55;;
67997;SDS011;54773;53.388;-1.504;2022-08-01T08:54:48;5.57;;;1.58;;
67997;SDS011;54773;53.388;-1.504;2022-08-01T08:57:15;4.13;;;1.30;;
67997;SDS011;54773;53.388;-1.504;2022-08-01T08:59:42;4.10;;;1.13;;
67997;SDS011;54773;53.388;-1.504;2022-08-01T09:02:08;4.97;;;1.40;;
67997;SDS011;54773;53.388;-1.504;2022-08-01T09:04:35;2.88;;;1.02;;
67997;SDS011;54773;53.388;-1.504;2022-08-01T09:07:05;3.40;;;1.08;;
67997;SDS011;54773;53.388;-1.504;2022-08-01T09:09:42;2.88;;;1.05;;
67997;SDS011;54773;53.388;-1.504;2022-08-01T09:12:08;2.90;;;1.10;;
67997;SDS011;54773;53.388;-1.504;2022-08-01T09:14:34;4.28;;;1.35;;
67997;SDS011;54773;53.388;-1.504;2022-08-01T09:17:09;3.08;;;1.10;;
67997;SDS011;54773;53.388;-1.504;2022-08-01T09:19:40;3.83;;;1.30;;
67997;SDS011;54773;53.388;-1.504;2022-08-01T09:22:11;5.82;;;1.30;;
67997;SDS011;54773;53.388;-1.504;2022-08-01T09:24:42;5.03;;;1.38;;
67997;SDS011;54773;53.388;-1.504;2022-08-01T09:27:27;3.15;;;1.45;;
67997;SDS011;54773;53.388;-1.504;2022-08-01T09:29:55;6.30;;;1.50;;
67997;SDS011;54773;53.388;-1.504;2022-08-01T09:32:35;4.32;;;1.40;;
67997;SDS011;54773;53.388;-1.504;2022-08-01T09:35:25;5.40;;;1.35;;
67997;SDS011;54773;53.388;-1.504;2022-08-01T09:38:12;3.15;;;1.10;;
67997;SDS011;54773;53.388;-1.504;2022-08-01T09:40:50;3.30;;;0.98;;
67997;SDS011;54773;53.388;-1.504;2022-08-01T09:43:27;2.72;;;0.98;;
67997;SDS011;54773;53.388;-1.504;2022-08-01T09:45:57;3.45;;;1.40;;
67997;SDS011;54773;53.388;-1.504;2022-08-01T09:48:23;3.78;;;1.20;;
67997;SDS011;54773;53.388;-1.504;2022-08-01T09:51:02;3.22;;;1.08;;
67997;SDS011;54773;53.388;-1.504;2022-08-01T09:53:48;2.97;;;0.98;;
67997;SDS011;54773;53.388;-1.504;2022-08-01T09:56:18;4.53;;;1.33;;
67997;SDS011;54773;53.388;-1.504;2022-08-01T10:01:46;4.22;;;1.33;;
67997;SDS011;54773;53.388;-1.504;2022-08-01T10:04:15;4.20;;;1.27;;
67997;SDS011;54773;53.388;-1.504;2022-08-01T10:06:43;2.50;;;1.10;;
67997;SDS011;54773;53.388;-1.504;2022-08-01T10:09:14;2.35;;;1.23;;
67997;SDS011;54773;53.388;-1.504;2022-08-01T10:11:44;3.53;;;1.20;;
67997;SDS011;54773;53.388;-1.504;2022-08-01T10:14:10;3.90;;;1.23;;
67997;SDS011;54773;53.388;-1.504;2022-08-01T10:16:38;4.22;;;1.30;;
67997;SDS011;54773;53.388;-1.504;2022-08-01T10:19:06;4.93;;;1.30;;
67997;SDS011;54773;53.388;-1.504;2022-08-01T10:21:33;3.90;;;1.17;;
67997;SDS011;54773;53.388;-1.504;2022-08-01T10:26:34;3.38;;;1.20;;
67997;SDS011;54773;53.388;-1.504;2022-08-01T10:29:00;4.85;;;1.20;;
67997;SDS011;54773;53.388;-1.504;2022-08-01T10:31:28;2.97;;;1.20;;
67997;SDS011;54773;53.388;-1.504;2022-08-01T10:34:02;2.47;;;1.08;;
67997;SDS011;54773;53.388;-1.504;2022-08-01T10:36:34;7.80;;;1.40;;
67997;SDS011;54773;53.388;-1.504;2022-08-01T10:39:05;2.83;;;1.35;;
67997;SDS011;54773;53.388;-1.504;2022-08-01T10:41:32;3.95;;;1.20;;
67997;SDS011;54773;53.388;-1.504;2022-08-01T10:44:00;2.65;;;1.13;;
67997;SDS011;54773;53.388;-1.504;2022-08-01T10:46:34;3.03;;;1.30;;
67997;SDS011;54773;53.388;-1.504;2022-08-01T10:49:07;4.32;;;1.48;;
67997;SDS011;54773;53.388;-1.504;2022-08-01T10:51:37;4.88;;;1.40;;
67997;SDS011;54773;53.388;-1.504;2022-08-01T10:54:05;4.18;;;1.30;;
67997;SDS011;54773;53.388;-1.504;2022-08-01T10:56:38;6.03;;;1.50;;
67997;SDS011;54773;53.388;-1.504;2022-08-01T10:59:05;4.82;;;1.20;;
67997;SDS011;54773;53.388;-1.504;2022-08-01T11:01:34;4.25;;;1.40;;
67997;SDS011;54773;53.388;-1.504;2022-08-01T11:09:03;5.10;;;1.52;;
67997;SDS011;54773;53.388;-1.504;2022-08-01T11:11:30;5.32;;;1.45;;
67997;SDS011;54773;53.388;-1.504;2022-08-01T11:16:34;4.30;;;1.50;;
67997;SDS011;54773;53.388;-1.504;2022-08-01T11:19:02;4.40;;;1.30;;
67997;SDS011;54773;53.388;-1.504;2022-08-01T11:27:15;4.30;;;1.40;;
67997;SDS011;54773;53.388;-1.504;2022-08-01T11:29:41;4.20;;;1.17;;
67997;SDS011;54773;53.388;-1.504;2022-08-01T11:32:45;4.13;;;1.30;;
67997;SDS011;54773;53.388;-1.504;2022-08-01T11:35:24;6.25;;;1.60;;
67997;SDS011;54773;53.388;-1.504;2022-08-01T11:37:52;3.30;;;1.30;;
67997;SDS011;54773;53.388;-1.504;2022-08-01T11:45:52;2.63;;;1.05;;
67997;SDS011;54773;53.388;-1.504;2022-08-01T11:48:21;5.10;;;1.38;;
67997;SDS011;54773;53.388;-1.504;2022-08-01T11:50:52;4.68;;;1.20;;
67997;SDS011;54773;53.388;-1.504;2022-08-01T11:53:22;2.33;;;1.23;;
67997;SDS011;54773;53.388;-1.504;2022-08-01T11:55:51;2.88;;;1.05;;
67997;SDS011;54773;53.388;-1.504;2022-08-01T11:58:23;2.97;;;1.05;;
67997;SDS011;54773;53.388;-1.504;2022-08-01T12:00:56;3.40;;;1.10;;
67997;SDS011;54773;53.388;-1.504;2022-08-01T12:03:25;4.53;;;1.20;;
67997;SDS011;54773;53.388;-1.504;2022-08-01T12:05:56;2.60;;;0.98;;
67997;SDS011;54773;53.388;-1.504;2022-08-01T12:08:30;3.97;;;1.23;;
67997;SDS011;54773;53.388;-1.504;2022-08-01T12:11:04;3.60;;;1.23;;
67997;SDS011;54773;53.388;-1.504;2022-08-01T12:13:42;3.95;;;1.40;;
67997;SDS011;54773;53.388;-1.504;2022-08-01T12:16:12;3.85;;;1.30;;
67997;SDS011;54773;53.388;-1.504;2022-08-01T12:18:38;3.70;;;1.23;;
67997;SDS011;54773;53.388;-1.504;2022-08-01T12:21:11;3.65;;;1.38;;
67997;SDS011;54773;53.388;-1.504;2022-08-01T12:23:40;3.83;;;1.55;;
67997;SDS011;54773;53.388;-1.504;2022-08-01T12:26:07;4.07;;;1.38;;
67997;SDS011;54773;53.388;-1.504;2022-08-01T12:28:40;3.42;;;1.40;;
67997;SDS011;54773;53.388;-1.504;2022-08-01T12:31:11;4.07;;;1.42;;
67997;SDS011;54773;53.388;-1.504;2022-08-01T12:33:37;3.42;;;1.40;;
67997;SDS011;54773;53.388;-1.504;2022-08-01T12:36:04;4.07;;;1.30;;
67997;SDS011;54773;53.388;-1.504;2022-08-01T12:38:31;3.80;;;1.30;;
67997;SDS011;54773;53.388;-1.504;2022-08-01T12:40:58;3.47;;;1.30;;
67997;SDS011;54773;53.388;-1.504;2022-08-01T12:43:25;4.60;;;1.30;;
67997;SDS011;54773;53.388;-1.504;2022-08-01T12:45:57;4.03;;;1.40;;
67997;SDS011;54773;53.388;-1.504;2022-08-01T12:48:24;3.40;;;1.33;;
67997;SDS011;54773;53.388;-1.504;2022-08-01T12:50:51;3.63;;;1.33;;
67997;SDS011;54773;53.388;-1.504;2022-08-01T12:53:23;4.35;;;1.60;;
67997;SDS011;54773;53.388;-1.504;2022-08-01T12:55:51;3.85;;;1.58;;
67997;SDS011;54773;53.388;-1.504;2022-08-01T12:58:18;4.07;;;1.38;;
67997;SDS011;54773;53.388;-1.504;2022-08-01T13:00:49;4.22;;;1.83;;
67997;SDS011;54773;53.388;-1.504;2022-08-01T13:03:20;6.32;;;1.70;;
67997;SDS011;54773;53.388;-1.504;2022-08-01T13:05:48;3.13;;;1.20;;
67997;SDS011;54773;53.388;-1.504;2022-08-01T13:08:35;3.55;;;1.55;;
67997;SDS011;54773;53.388;-1.504;2022-08-01T13:11:13;4.20;;;1.40;;
67997;SDS011;54773;53.388;-1.504;2022-08-01T13:16:08;2.92;;;1.17;;
67997;SDS011;54773;53.388;-1.504;2022-08-01T13:18:35;3.80;;;1.40;;
67997;SDS011;54773;53.388;-1.504;2022-08-01T13:23:41;3.67;;;1.30;;
67997;SDS011;54773;53.388;-1.504;2022-08-01T13:26:37;3.03;;;1.08;;
67997;SDS011;54773;53.388;-1.504;2022-08-01T13:29:10;3.92;;;1.25;;
67997;SDS011;54773;53.388;-1.504;2022-08-01T13:31:38;4.63;;;1.38;;
67997;SDS011;54773;53.388;-1.504;2022-08-01T13:34:05;4.53;;;1.10;;
67997;SDS011;54773;53.388;-1.504;2022-08-01T13:36:34;2.90;;;0.93;;
67997;SDS011;54773;53.388;-1.504;2022-08-01T13:39:02;3.45;;;1.17;;
67997;SDS011;54773;53.388;-1.504;2022-08-01T13:41:47;2.72;;;1.10;;
67997;SDS011;54773;53.388;-1.504;2022-08-01T13:44:16;4.38;;;1.42;;
67997;SDS011;54773;53.388;-1.504;2022-08-01T13:46:44;3.55;;;1.20;;
67997;SDS011;54773;53.388;-1.504;2022-08-01T13:49:13;3.83;;;1.38;;
67997;SDS011;54773;53.388;-1.504;2022-08-01T13:51:39;3.95;;;1.42;;
67997;SDS011;54773;53.388;-1.504;2022-08-01T13:54:09;2.05;;;1.05;;
67997;SDS011;54773;53.388;-1.504;2022-08-01T13:56:37;2.60;;;1.08;;
67997;SDS011;54773;53.388;-1.504;2022-08-01T13:59:07;4.03;;;1.40;;
67997;SDS011;54773;53.388;-1.504;2022-08-01T14:01:34;4.10;;;1.20;;
67997;SDS011;54773;53.388;-1.504;2022-08-01T14:04:01;2.95;;;1.20;;
67997;SDS011;54773;53.388;-1.504;2022-08-01T14:06:28;2.97;;;0.93;;
67997;SDS011;54773;53.388;-1.504;2022-08-01T14:08:58;5.63;;;1.25;;
67997;SDS011;54773;53.388;-1.504;2022-08-01T14:11:27;3.05;;;1.10;;
67997;SDS011;54773;53.388;-1.504;2022-08-01T14:13:55;2.78;;;1.20;;
67997;SDS011;54773;53.388;-1.504;2022-08-01T14:16:21;3.25;;;1.33;;
67997;SDS011;54773;53.388;-1.504;2022-08-01T14:18:48;3.53;;;1.27;;
67997;SDS011;54773;53.388;-1.504;2022-08-01T14:21:14;8.13;;;1.60;;
67997;SDS011;54773;53.388;-1.504;2022-08-01T14:23:42;3.20;;;1.35;;
67997;SDS011;54773;53.388;-1.504;2022-08-01T14:26:12;3.50;;;1.30;;
67997;SDS011;54773;53.388;-1.504;2022-08-01T14:28:42;2.53;;;1.30;;
67997;SDS011;54773;53.388;-1.504;2022-08-01T14:31:10;4.80;;;1.35;;
67997;SDS011;54773;53.388;-1.504;2022-08-01T14:33:39;3.13;;;1.20;;
67997;SDS011;54773;53.388;-1.504;2022-08-01T14:36:05;3.50;;;1.20;;
67997;SDS011;54773;53.388;-1.504;2022-08-01T14:38:32;3.65;;;1.20;;
67997;SDS011;54773;53.388;-1.504;2022-08-01T14:41:01;2.78;;;1.25;;
67997;SDS011;54773;53.388;-1.504;2022-08-01T14:43:28;3.50;;;1.50;;
67997;SDS011;54773;53.388;-1.504;2022-08-01T14:45:58;4.53;;;1.40;;
67997;SDS011;54773;53.388;-1.504;2022-08-01T14:48:25;4.88;;;1.30;;
67997;SDS011;54773;53.388;-1.504;2022-08-01T14:50:52;3.75;;;1.60;;
67997;SDS011;54773;53.388;-1.504;2022-08-01T14:53:18;3.08;;;1.20;;
67997;SDS011;54773;53.388;-1.504;2022-08-01T14:55:44;3.80;;;1.15;;
67997;SDS011;54773;53.388;-1.504;2022-08-01T14:58:11;3.08;;;1.10;;
67997;SDS011;54773;53.388;-1.504;2022-08-01T15:00:38;5.63;;;1.30;;
67997;SDS011;54773;53.388;-1.504;2022-08-01T15:03:04;4.63;;;1.40;;
67997;SDS011;54773;53.388;-1.504;2022-08-01T15:05:32;4.85;;;1.48;;
67997;SDS011;54773;53.388;-1.504;2022-08-01T15:08:02;2.88;;;1.38;;
67997;SDS011;54773;53.388;-1.504;2022-08-01T15:10:30;4.15;;;1.50;;
67997;SDS011;54773;53.388;-1.504;2022-08-01T15:12:57;3.20;;;1.60;;
67997;SDS011;54773;53.388;-1.504;2022-08-01T15:15:28;4.88;;;1.40;;
67997;SDS011;54773;53.388;-1.504;2022-08-01T15:17:54;3.47;;;1.20;;
67997;SDS011;54773;53.388;-1.504;2022-08-01T15:20:25;3.75;;;1.40;;
67997;SDS011;54773;53.388;-1.504;2022-08-01T15:22:52;2.55;;;1.27;;
67997;SDS011;54773;53.388;-1.504;2022-08-01T15:25:21;3.60;;;1.33;;
67997;SDS011;54773;53.388;-1.504;2022-08-01T15:27:51;4.15;;;1.40;;
67997;SDS011;54773;53.388;-1.504;2022-08-01T15:30:21;4.80;;;1.30;;
67997;SDS011;54773;53.388;-1.504;2022-08-01T15:32:49;4.63;;;1.30;;
67997;SDS011;54773;53.388;-1.504;2022-08-01T15:35:15;2.75;;;1.40;;